sensor_id;sensor_type;location;lat;lon;timestamp;P1;durP1;ratioP1;P2;durP2;ratioP2
26820;SDS011;37186;51.394;5.454;2023-03-11T00:01:58;2.40;;;2.40;;
26820;SDS011;37186;51.394;5.454;2023-03-11T00:04:58;2.40;;;2.40;;
26820;SDS011;37186;51.394;5.454;2023-03-11T00:07:59;2.40;;;2.40;;
26820;SDS011;37186;51.394;5.454;2023-03-11T00:11:00;2.30;;;2.30;;
26820;SDS011;37186;51.394;5.454;2023-03-11T00:14:01;2.60;;;2.60;;
26820;SDS011;37186;51.394;5.454;2023-03-11T00:17:01;2.40;;;2.40;;
26820;SDS011;37186;51.394;5.454;2023-03-11T00:20:03;2.30;;;2.30;;
26820;SDS011;37186;51.394;5.454;2023-03-11T00:23:06;2.50;;;2.50;;
26820;SDS011;37186;51.394;5.454;2023-03-11T00:26:07;2.40;;;2.40;;
26820;SDS011;37186;51.394;5.454;2023-03-11T00:29:08;2.53;;;2.53;;
26820;SDS011;37186;51.394;5.454;2023-03-11T00:32:08;2.40;;;2.40;;
26820;SDS011;37186;51.394;5.454;2023-03-11T00:35:13;2.60;;;2.60;;
26820;SDS011;37186;51.394;5.454;2023-03-11T00:38:17;2.40;;;2.40;;
26820;SDS011;37186;51.394;5.454;2023-03-11T00:41:18;2.50;;;2.50;;
26820;SDS011;37186;51.394;5.454;2023-03-11T00:44:18;2.40;;;2.40;;
26820;SDS011;37186;51.394;5.454;2023-03-11T00:47:19;2.50;;;2.50;;
26820;SDS011;37186;51.394;5.454;2023-03-11T00:50:23;2.50;;;2.50;;
26820;SDS011;37186;51.394;5.454;2023-03-11T00:53:26;2.60;;;2.60;;
26820;SDS011;37186;51.394;5.454;2023-03-11T00:56:27;2.50;;;2.50;;
26820;SDS011;37186;51.394;5.454;2023-03-11T00:59:27;2.30;;;2.30;;
26820;SDS011;37186;51.394;5.454;2023-03-11T01:02:28;2.40;;;2.40;;
26820;SDS011;37186;51.394;5.454;2023-03-11T01:05:29;2.90;;;2.80;;
26820;SDS011;37186;51.394;5.454;2023-03-11T01:08:32;2.30;;;2.30;;
26820;SDS011;37186;51.394;5.454;2023-03-11T01:11:33;2.40;;;2.40;;
26820;SDS011;37186;51.394;5.454;2023-03-11T01:14:33;2.60;;;2.60;;
26820;SDS011;37186;51.394;5.454;2023-03-11T01:17:34;2.30;;;2.30;;
26820;SDS011;37186;51.394;5.454;2023-03-11T01:20:35;2.50;;;2.50;;
26820;SDS011;37186;51.394;5.454;2023-03-11T01:23:37;2.57;;;2.57;;
26820;SDS011;37186;51.394;5.454;2023-03-11T01:26:39;2.60;;;2.60;;
26820;SDS011;37186;51.394;5.454;2023-03-11T01:29:39;2.30;;;2.30;;
26820;SDS011;37186;51.394;5.454;2023-03-11T01:32:40;2.40;;;2.40;;
26820;SDS011;37186;51.394;5.454;2023-03-11T01:35:40;2.37;;;2.37;;
26820;SDS011;37186;51.394;5.454;2023-03-11T01:38:42;2.20;;;2.20;;
26820;SDS011;37186;51.394;5.454;2023-03-11T01:41:43;2.33;;;2.33;;
26820;SDS011;37186;51.394;5.454;2023-03-11T01:44:43;2.37;;;2.37;;
26820;SDS011;37186;51.394;5.454;2023-03-11T01:47:44;2.30;;;2.30;;
26820;SDS011;37186;51.394;5.454;2023-03-11T01:50:45;2.40;;;2.40;;
26820;SDS011;37186;51.394;5.454;2023-03-11T01:53:48;2.40;;;2.40;;
26820;SDS011;37186;51.394;5.454;2023-03-11T01:56:50;2.40;;;2.40;;
26820;SDS011;37186;51.394;5.454;2023-03-11T01:59:52;2.40;;;2.40;;
26820;SDS011;37186;51.394;5.454;2023-03-11T02:02:57;2.60;;;2.60;;
26820;SDS011;37186;51.394;5.454;2023-03-11T02:06:02;2.50;;;2.50;;
26820;SDS011;37186;51.394;5.454;2023-03-11T02:09:07;2.30;;;2.30;;
26820;SDS011;37186;51.394;5.454;2023-03-11T02:12:08;2.50;;;2.50;;
26820;SDS011;37186;51.394;5.454;2023-03-11T02:15:10;2.50;;;2.50;;
26820;SDS011;37186;51.394;5.454;2023-03-11T02:18:12;2.70;;;2.70;;
26820;SDS011;37186;51.394;5.454;2023-03-11T02:21:31;2.33;;;2.33;;
26820;SDS011;37186;51.394;5.454;2023-03-11T02:24:39;2.80;;;2.70;;
26820;SDS011;37186;51.394;5.454;2023-03-11T02:27:46;2.40;;;2.40;;
26820;SDS011;37186;51.394;5.454;2023-03-11T02:30:48;2.53;;;2.53;;
26820;SDS011;37186;51.394;5.454;2023-03-11T02:33:49;2.47;;;2.47;;
26820;SDS011;37186;51.394;5.454;2023-03-11T02:36:53;2.40;;;2.40;;
26820;SDS011;37186;51.394;5.454;2023-03-11T02:39:53;2.50;;;2.50;;
26820;SDS011;37186;51.394;5.454;2023-03-11T02:43:15;2.40;;;2.40;;
26820;SDS011;37186;51.394;5.454;2023-03-11T02:46:19;2.50;;;2.50;;
26820;SDS011;37186;51.394;5.454;2023-03-11T02:49:19;2.17;;;2.17;;
26820;SDS011;37186;51.394;5.454;2023-03-11T02:52:23;2.37;;;2.37;;
26820;SDS011;37186;51.394;5.454;2023-03-11T02:55:24;2.40;;;2.40;;
26820;SDS011;37186;51.394;5.454;2023-03-11T02:58:25;2.40;;;2.40;;
26820;SDS011;37186;51.394;5.454;2023-03-11T03:01:25;2.40;;;2.40;;
26820;SDS011;37186;51.394;5.454;2023-03-11T03:04:26;2.47;;;2.47;;
26820;SDS011;37186;51.394;5.454;2023-03-11T03:07:26;2.53;;;2.53;;
26820;SDS011;37186;51.394;5.454;2023-03-11T03:10:27;2.40;;;2.40;;
26820;SDS011;37186;51.394;5.454;2023-03-11T03:13:28;2.50;;;2.50;;
26820;SDS011;37186;51.394;5.454;2023-03-11T03:16:29;2.50;;;2.50;;
26820;SDS011;37186;51.394;5.454;2023-03-11T03:19:31;2.80;;;2.70;;
26820;SDS011;37186;51.394;5.454;2023-03-11T03:22:32;2.30;;;2.30;;
26820;SDS011;37186;51.394;5.454;2023-03-11T03:25:32;2.20;;;2.20;;
26820;SDS011;37186;51.394;5.454;2023-03-11T03:28:33;2.40;;;2.40;;
26820;SDS011;37186;51.394;5.454;2023-03-11T03:31:33;2.40;;;2.40;;
26820;SDS011;37186;51.394;5.454;2023-03-11T03:34:34;2.30;;;2.30;;
26820;SDS011;37186;51.394;5.454;2023-03-11T03:37:35;2.30;;;2.30;;
26820;SDS011;37186;51.394;5.454;2023-03-11T03:40:36;2.40;;;2.40;;
26820;SDS011;37186;51.394;5.454;2023-03-11T03:43:37;2.30;;;2.30;;
26820;SDS011;37186;51.394;5.454;2023-03-11T03:46:37;2.27;;;2.27;;
26820;SDS011;37186;51.394;5.454;2023-03-11T03:49:38;2.30;;;2.30;;
26820;SDS011;37186;51.394;5.454;2023-03-11T03:52:39;2.37;;;2.37;;
26820;SDS011;37186;51.394;5.454;2023-03-11T03:55:39;2.40;;;2.40;;
26820;SDS011;37186;51.394;5.454;2023-03-11T03:58:40;2.40;;;2.40;;
26820;SDS011;37186;51.394;5.454;2023-03-11T04:01:40;2.50;;;2.50;;
26820;SDS011;37186;51.394;5.454;2023-03-11T04:04:41;2.30;;;2.30;;
26820;SDS011;37186;51.394;5.454;2023-03-11T04:07:41;2.50;;;2.50;;
26820;SDS011;37186;51.394;5.454;2023-03-11T04:10:42;2.40;;;2.40;;
26820;SDS011;37186;51.394;5.454;2023-03-11T04:13:43;2.33;;;2.33;;
26820;SDS011;37186;51.394;5.454;2023-03-11T04:16:43;2.37;;;2.37;;
26820;SDS011;37186;51.394;5.454;2023-03-11T04:19:44;2.50;;;2.50;;
26820;SDS011;37186;51.394;5.454;2023-03-11T04:22:44;2.40;;;2.40;;
26820;SDS011;37186;51.394;5.454;2023-03-11T04:25:45;2.60;;;2.60;;
26820;SDS011;37186;51.394;5.454;2023-03-11T04:28:45;2.40;;;2.40;;
26820;SDS011;37186;51.394;5.454;2023-03-11T04:31:46;2.50;;;2.50;;
26820;SDS011;37186;51.394;5.454;2023-03-11T04:34:46;2.30;;;2.30;;
26820;SDS011;37186;51.394;5.454;2023-03-11T04:37:47;2.30;;;2.30;;
26820;SDS011;37186;51.394;5.454;2023-03-11T04:40:48;2.47;;;2.47;;
26820;SDS011;37186;51.394;5.454;2023-03-11T04:43:49;2.50;;;2.50;;
26820;SDS011;37186;51.394;5.454;2023-03-11T04:46:49;2.60;;;2.60;;
26820;SDS011;37186;51.394;5.454;2023-03-11T04:49:50;2.50;;;2.50;;
26820;SDS011;37186;51.394;5.454;2023-03-11T04:52:50;2.50;;;2.50;;
26820;SDS011;37186;51.394;5.454;2023-03-11T04:55:51;2.40;;;2.40;;
26820;SDS011;37186;51.394;5.454;2023-03-11T04:58:52;2.40;;;2.40;;
26820;SDS011;37186;51.394;5.454;2023-03-11T05:01:53;2.10;;;2.10;;
26820;SDS011;37186;51.394;5.454;2023-03-11T05:04:54;2.30;;;2.30;;
26820;SDS011;37186;51.394;5.454;2023-03-11T05:07:54;2.30;;;2.30;;
26820;SDS011;37186;51.394;5.454;2023-03-11T05:10:55;2.23;;;2.23;;
26820;SDS011;37186;51.394;5.454;2023-03-11T05:13:55;2.30;;;2.30;;
26820;SDS011;37186;51.394;5.454;2023-03-11T05:16:56;2.27;;;2.27;;
26820;SDS011;37186;51.394;5.454;2023-03-11T05:19:56;2.40;;;2.40;;
26820;SDS011;37186;51.394;5.454;2023-03-11T05:22:57;2.40;;;2.40;;
26820;SDS011;37186;51.394;5.454;2023-03-11T05:25:58;2.40;;;2.40;;
26820;SDS011;37186;51.394;5.454;2023-03-11T05:28:58;2.20;;;2.20;;
26820;SDS011;37186;51.394;5.454;2023-03-11T05:31:59;2.30;;;2.30;;
26820;SDS011;37186;51.394;5.454;2023-03-11T05:34:59;2.20;;;2.20;;
26820;SDS011;37186;51.394;5.454;2023-03-11T05:38:00;2.20;;;2.20;;
26820;SDS011;37186;51.394;5.454;2023-03-11T05:41:00;2.40;;;2.40;;
26820;SDS011;37186;51.394;5.454;2023-03-11T05:44:01;2.20;;;2.20;;
26820;SDS011;37186;51.394;5.454;2023-03-11T05:47:02;2.20;;;2.20;;
26820;SDS011;37186;51.394;5.454;2023-03-11T05:50:03;2.40;;;2.40;;
26820;SDS011;37186;51.394;5.454;2023-03-11T05:53:04;2.10;;;2.10;;
26820;SDS011;37186;51.394;5.454;2023-03-11T05:56:05;2.40;;;2.40;;
26820;SDS011;37186;51.394;5.454;2023-03-11T05:59:06;2.30;;;2.30;;
26820;SDS011;37186;51.394;5.454;2023-03-11T06:02:07;2.30;;;2.30;;
26820;SDS011;37186;51.394;5.454;2023-03-11T06:05:08;2.30;;;2.30;;
26820;SDS011;37186;51.394;5.454;2023-03-11T06:08:08;2.40;;;2.40;;
26820;SDS011;37186;51.394;5.454;2023-03-11T06:11:09;2.30;;;2.30;;
26820;SDS011;37186;51.394;5.454;2023-03-11T06:14:10;2.40;;;2.40;;
26820;SDS011;37186;51.394;5.454;2023-03-11T06:17:12;2.30;;;2.30;;
26820;SDS011;37186;51.394;5.454;2023-03-11T06:20:13;2.50;;;2.50;;
26820;SDS011;37186;51.394;5.454;2023-03-11T06:23:13;2.40;;;2.40;;
26820;SDS011;37186;51.394;5.454;2023-03-11T06:26:15;2.30;;;2.30;;
26820;SDS011;37186;51.394;5.454;2023-03-11T06:29:19;2.40;;;2.40;;
26820;SDS011;37186;51.394;5.454;2023-03-11T06:32:23;2.30;;;2.30;;
26820;SDS011;37186;51.394;5.454;2023-03-11T06:35:23;2.33;;;2.33;;
26820;SDS011;37186;51.394;5.454;2023-03-11T06:38:24;2.30;;;2.30;;
26820;SDS011;37186;51.394;5.454;2023-03-11T06:41:25;2.30;;;2.30;;
26820;SDS011;37186;51.394;5.454;2023-03-11T06:44:26;2.33;;;2.33;;
26820;SDS011;37186;51.394;5.454;2023-03-11T06:47:26;2.20;;;2.20;;
26820;SDS011;37186;51.394;5.454;2023-03-11T06:50:27;2.40;;;2.40;;
26820;SDS011;37186;51.394;5.454;2023-03-11T06:53:28;2.30;;;2.30;;
26820;SDS011;37186;51.394;5.454;2023-03-11T06:56:29;2.30;;;2.30;;
26820;SDS011;37186;51.394;5.454;2023-03-11T06:59:29;2.20;;;2.20;;
26820;SDS011;37186;51.394;5.454;2023-03-11T07:02:30;2.30;;;2.30;;
26820;SDS011;37186;51.394;5.454;2023-03-11T07:05:30;2.30;;;2.30;;
26820;SDS011;37186;51.394;5.454;2023-03-11T07:08:31;2.30;;;2.30;;
26820;SDS011;37186;51.394;5.454;2023-03-11T07:11:32;2.20;;;2.20;;
26820;SDS011;37186;51.394;5.454;2023-03-11T07:14:32;2.30;;;2.30;;
26820;SDS011;37186;51.394;5.454;2023-03-11T07:17:33;2.30;;;2.30;;
26820;SDS011;37186;51.394;5.454;2023-03-11T07:20:34;2.20;;;2.20;;
26820;SDS011;37186;51.394;5.454;2023-03-11T07:23:35;2.30;;;2.30;;
26820;SDS011;37186;51.394;5.454;2023-03-11T07:26:36;2.20;;;2.20;;
26820;SDS011;37186;51.394;5.454;2023-03-11T07:29:37;2.40;;;2.40;;
26820;SDS011;37186;51.394;5.454;2023-03-11T07:32:37;2.10;;;2.10;;
26820;SDS011;37186;51.394;5.454;2023-03-11T07:35:38;2.17;;;2.17;;
26820;SDS011;37186;51.394;5.454;2023-03-11T07:38:38;2.30;;;2.30;;
26820;SDS011;37186;51.394;5.454;2023-03-11T07:41:39;2.23;;;2.23;;
26820;SDS011;37186;51.394;5.454;2023-03-11T07:44:40;2.40;;;2.40;;
26820;SDS011;37186;51.394;5.454;2023-03-11T07:47:41;2.50;;;2.50;;
26820;SDS011;37186;51.394;5.454;2023-03-11T07:50:41;2.30;;;2.30;;
26820;SDS011;37186;51.394;5.454;2023-03-11T07:53:42;2.40;;;2.40;;
26820;SDS011;37186;51.394;5.454;2023-03-11T07:56:43;2.40;;;2.40;;
26820;SDS011;37186;51.394;5.454;2023-03-11T07:59:43;2.50;;;2.50;;
26820;SDS011;37186;51.394;5.454;2023-03-11T08:02:44;2.20;;;2.20;;
26820;SDS011;37186;51.394;5.454;2023-03-11T08:05:45;2.40;;;2.40;;
26820;SDS011;37186;51.394;5.454;2023-03-11T08:08:45;2.30;;;2.30;;
26820;SDS011;37186;51.394;5.454;2023-03-11T08:11:47;2.20;;;2.20;;
26820;SDS011;37186;51.394;5.454;2023-03-11T08:14:47;2.30;;;2.30;;
26820;SDS011;37186;51.394;5.454;2023-03-11T08:17:48;2.30;;;2.30;;
26820;SDS011;37186;51.394;5.454;2023-03-11T08:20:48;2.40;;;2.40;;
26820;SDS011;37186;51.394;5.454;2023-03-11T08:23:49;2.13;;;2.13;;
26820;SDS011;37186;51.394;5.454;2023-03-11T08:26:50;2.50;;;2.50;;
26820;SDS011;37186;51.394;5.454;2023-03-11T08:29:51;2.40;;;2.40;;
26820;SDS011;37186;51.394;5.454;2023-03-11T08:32:52;2.40;;;2.40;;
26820;SDS011;37186;51.394;5.454;2023-03-11T08:35:53;2.40;;;2.40;;
26820;SDS011;37186;51.394;5.454;2023-03-11T08:38:53;2.40;;;2.40;;
26820;SDS011;37186;51.394;5.454;2023-03-11T08:41:54;2.20;;;2.20;;
26820;SDS011;37186;51.394;5.454;2023-03-11T08:44:55;2.60;;;2.60;;
26820;SDS011;37186;51.394;5.454;2023-03-11T08:47:55;2.40;;;2.40;;
26820;SDS011;37186;51.394;5.454;2023-03-11T08:50:56;2.30;;;2.30;;
26820;SDS011;37186;51.394;5.454;2023-03-11T08:53:56;2.30;;;2.30;;
26820;SDS011;37186;51.394;5.454;2023-03-11T08:56:57;2.30;;;2.30;;
26820;SDS011;37186;51.394;5.454;2023-03-11T09:00:01;2.30;;;2.30;;
26820;SDS011;37186;51.394;5.454;2023-03-11T09:03:03;2.30;;;2.30;;
26820;SDS011;37186;51.394;5.454;2023-03-11T09:06:05;2.30;;;2.30;;
26820;SDS011;37186;51.394;5.454;2023-03-11T09:09:09;2.20;;;2.20;;
26820;SDS011;37186;51.394;5.454;2023-03-11T09:12:11;2.40;;;2.40;;
26820;SDS011;37186;51.394;5.454;2023-03-11T09:15:14;2.30;;;2.30;;
26820;SDS011;37186;51.394;5.454;2023-03-11T09:18:15;2.30;;;2.30;;
26820;SDS011;37186;51.394;5.454;2023-03-11T09:21:16;2.10;;;2.10;;
26820;SDS011;37186;51.394;5.454;2023-03-11T09:24:17;2.20;;;2.20;;
26820;SDS011;37186;51.394;5.454;2023-03-11T09:27:17;2.40;;;2.40;;
26820;SDS011;37186;51.394;5.454;2023-03-11T09:30:18;2.30;;;2.30;;
26820;SDS011;37186;51.394;5.454;2023-03-11T09:33:19;2.30;;;2.30;;
26820;SDS011;37186;51.394;5.454;2023-03-11T09:36:19;2.20;;;2.20;;
26820;SDS011;37186;51.394;5.454;2023-03-11T09:39:20;2.10;;;2.10;;
26820;SDS011;37186;51.394;5.454;2023-03-11T09:42:32;2.40;;;2.40;;
26820;SDS011;37186;51.394;5.454;2023-03-11T09:45:43;2.20;;;2.20;;
26820;SDS011;37186;51.394;5.454;2023-03-11T09:52:25;2.20;;;2.20;;
26820;SDS011;37186;51.394;5.454;2023-03-11T09:55:38;2.30;;;2.30;;
26820;SDS011;37186;51.394;5.454;2023-03-11T09:58:51;2.20;;;2.20;;
26820;SDS011;37186;51.394;5.454;2023-03-11T10:01:56;2.30;;;2.30;;
26820;SDS011;37186;51.394;5.454;2023-03-11T10:05:03;2.30;;;2.30;;
26820;SDS011;37186;51.394;5.454;2023-03-11T10:08:18;2.30;;;2.30;;
26820;SDS011;37186;51.394;5.454;2023-03-11T10:11:40;2.40;;;2.40;;
26820;SDS011;37186;51.394;5.454;2023-03-11T10:21:43;2.80;;;2.70;;
26820;SDS011;37186;51.394;5.454;2023-03-11T10:28:17;2.73;;;2.70;;
26820;SDS011;37186;51.394;5.454;2023-03-11T10:31:22;2.47;;;2.47;;
26820;SDS011;37186;51.394;5.454;2023-03-11T10:34:37;2.50;;;2.50;;
26820;SDS011;37186;51.394;5.454;2023-03-11T10:37:45;2.60;;;2.60;;
26820;SDS011;37186;51.394;5.454;2023-03-11T10:40:55;2.70;;;2.70;;
26820;SDS011;37186;51.394;5.454;2023-03-11T10:44:00;2.60;;;2.60;;
26820;SDS011;37186;51.394;5.454;2023-03-11T10:47:05;2.50;;;2.50;;
26820;SDS011;37186;51.394;5.454;2023-03-11T10:50:14;2.40;;;2.40;;
26820;SDS011;37186;51.394;5.454;2023-03-11T10:53:17;2.50;;;2.50;;
26820;SDS011;37186;51.394;5.454;2023-03-11T10:56:24;2.40;;;2.40;;
26820;SDS011;37186;51.394;5.454;2023-03-11T10:59:33;2.40;;;2.40;;
26820;SDS011;37186;51.394;5.454;2023-03-11T11:02:52;2.30;;;2.30;;
26820;SDS011;37186;51.394;5.454;2023-03-11T11:05:58;2.50;;;2.50;;
26820;SDS011;37186;51.394;5.454;2023-03-11T11:09:17;2.40;;;2.40;;
26820;SDS011;37186;51.394;5.454;2023-03-11T11:12:21;2.30;;;2.30;;
26820;SDS011;37186;51.394;5.454;2023-03-11T11:15:23;2.40;;;2.40;;
26820;SDS011;37186;51.394;5.454;2023-03-11T11:24:36;2.60;;;2.60;;
26820;SDS011;37186;51.394;5.454;2023-03-11T11:27:52;2.50;;;2.50;;
26820;SDS011;37186;51.394;5.454;2023-03-11T11:30:56;2.40;;;2.40;;
26820;SDS011;37186;51.394;5.454;2023-03-11T11:34:00;2.50;;;2.50;;
26820;SDS011;37186;51.394;5.454;2023-03-11T11:37:01;2.30;;;2.30;;
26820;SDS011;37186;51.394;5.454;2023-03-11T11:43:19;2.40;;;2.40;;
26820;SDS011;37186;51.394;5.454;2023-03-11T11:46:29;2.33;;;2.33;;
26820;SDS011;37186;51.394;5.454;2023-03-11T11:49:55;2.50;;;2.50;;
26820;SDS011;37186;51.394;5.454;2023-03-11T11:53:21;2.40;;;2.40;;
26820;SDS011;37186;51.394;5.454;2023-03-11T11:56:45;2.50;;;2.50;;
26820;SDS011;37186;51.394;5.454;2023-03-11T11:59:46;2.40;;;2.40;;
26820;SDS011;37186;51.394;5.454;2023-03-11T12:02:57;2.50;;;2.50;;
26820;SDS011;37186;51.394;5.454;2023-03-11T12:06:09;2.30;;;2.30;;
26820;SDS011;37186;51.394;5.454;2023-03-11T12:09:23;2.40;;;2.40;;
26820;SDS011;37186;51.394;5.454;2023-03-11T12:12:36;2.40;;;2.40;;
26820;SDS011;37186;51.394;5.454;2023-03-11T12:15:58;2.50;;;2.50;;
26820;SDS011;37186;51.394;5.454;2023-03-11T12:25:31;2.50;;;2.50;;
26820;SDS011;37186;51.394;5.454;2023-03-11T12:31:57;2.50;;;2.50;;
26820;SDS011;37186;51.394;5.454;2023-03-11T12:35:01;2.60;;;2.60;;
26820;SDS011;37186;51.394;5.454;2023-03-11T12:38:15;2.50;;;2.50;;
26820;SDS011;37186;51.394;5.454;2023-03-11T12:44:32;2.50;;;2.50;;
26820;SDS011;37186;51.394;5.454;2023-03-11T12:47:33;2.30;;;2.30;;
26820;SDS011;37186;51.394;5.454;2023-03-11T12:50:38;2.50;;;2.50;;
26820;SDS011;37186;51.394;5.454;2023-03-11T12:53:47;2.57;;;2.57;;
26820;SDS011;37186;51.394;5.454;2023-03-11T12:56:58;2.80;;;2.70;;
26820;SDS011;37186;51.394;5.454;2023-03-11T13:03:38;2.80;;;2.70;;
26820;SDS011;37186;51.394;5.454;2023-03-11T13:13:40;2.90;;;2.80;;
26820;SDS011;37186;51.394;5.454;2023-03-11T13:16:42;2.90;;;2.80;;
26820;SDS011;37186;51.394;5.454;2023-03-11T13:19:47;2.90;;;2.80;;
26820;SDS011;37186;51.394;5.454;2023-03-11T13:42:48;3.57;;;3.47;;
26820;SDS011;37186;51.394;5.454;2023-03-11T13:45:56;3.40;;;3.30;;
26820;SDS011;37186;51.394;5.454;2023-03-11T13:49:10;3.03;;;2.93;;
26820;SDS011;37186;51.394;5.454;2023-03-11T13:52:34;3.50;;;3.40;;
26820;SDS011;37186;51.394;5.454;2023-03-11T13:55:45;3.20;;;3.10;;
26820;SDS011;37186;51.394;5.454;2023-03-11T13:58:47;3.23;;;3.13;;
26820;SDS011;37186;51.394;5.454;2023-03-11T14:01:48;3.40;;;3.30;;
26820;SDS011;37186;51.394;5.454;2023-03-11T14:05:03;3.50;;;3.40;;
26820;SDS011;37186;51.394;5.454;2023-03-11T14:08:17;3.40;;;3.30;;
26820;SDS011;37186;51.394;5.454;2023-03-11T14:11:30;3.57;;;3.47;;
26820;SDS011;37186;51.394;5.454;2023-03-11T14:14:38;3.77;;;3.67;;
26820;SDS011;37186;51.394;5.454;2023-03-11T14:17:46;3.60;;;3.50;;
26820;SDS011;37186;51.394;5.454;2023-03-11T14:20:47;3.87;;;3.77;;
26820;SDS011;37186;51.394;5.454;2023-03-11T14:23:49;3.77;;;3.67;;
26820;SDS011;37186;51.394;5.454;2023-03-11T14:26:52;3.83;;;3.73;;
26820;SDS011;37186;51.394;5.454;2023-03-11T14:29:54;4.10;;;4.00;;
26820;SDS011;37186;51.394;5.454;2023-03-11T14:33:02;4.03;;;3.93;;
26820;SDS011;37186;51.394;5.454;2023-03-11T14:36:05;3.97;;;3.87;;
26820;SDS011;37186;51.394;5.454;2023-03-11T14:42:32;4.17;;;4.07;;
26820;SDS011;37186;51.394;5.454;2023-03-11T14:45:35;3.77;;;3.67;;
26820;SDS011;37186;51.394;5.454;2023-03-11T14:48:39;4.33;;;4.23;;
26820;SDS011;37186;51.394;5.454;2023-03-11T14:51:43;4.40;;;4.30;;
26820;SDS011;37186;51.394;5.454;2023-03-11T14:54:44;4.70;;;4.60;;
26820;SDS011;37186;51.394;5.454;2023-03-11T14:57:46;3.60;;;3.50;;
26820;SDS011;37186;51.394;5.454;2023-03-11T15:00:54;3.90;;;3.80;;
26820;SDS011;37186;51.394;5.454;2023-03-11T15:04:05;3.70;;;3.60;;
26820;SDS011;37186;51.394;5.454;2023-03-11T15:07:12;3.30;;;3.20;;
26820;SDS011;37186;51.394;5.454;2023-03-11T15:10:13;3.43;;;3.33;;
26820;SDS011;37186;51.394;5.454;2023-03-11T15:13:14;3.17;;;3.07;;
26820;SDS011;37186;51.394;5.454;2023-03-11T15:16:22;3.20;;;3.10;;
26820;SDS011;37186;51.394;5.454;2023-03-11T15:22:32;3.43;;;3.33;;
26820;SDS011;37186;51.394;5.454;2023-03-11T15:25:38;3.90;;;3.80;;
26820;SDS011;37186;51.394;5.454;2023-03-11T15:28:51;4.40;;;4.30;;
26820;SDS011;37186;51.394;5.454;2023-03-11T15:31:57;4.63;;;4.53;;
26820;SDS011;37186;51.394;5.454;2023-03-11T15:35:10;4.40;;;4.30;;
26820;SDS011;37186;51.394;5.454;2023-03-11T15:41:12;4.60;;;4.50;;
26820;SDS011;37186;51.394;5.454;2023-03-11T15:44:28;7.33;;;7.13;;
26820;SDS011;37186;51.394;5.454;2023-03-11T15:47:33;7.63;;;7.43;;
26820;SDS011;37186;51.394;5.454;2023-03-11T15:50:34;9.97;;;9.67;;
26820;SDS011;37186;51.394;5.454;2023-03-11T15:53:35;11.03;;;10.73;;
26820;SDS011;37186;51.394;5.454;2023-03-11T15:56:36;11.20;;;10.90;;
26820;SDS011;37186;51.394;5.454;2023-03-11T15:59:37;11.23;;;10.93;;
26820;SDS011;37186;51.394;5.454;2023-03-11T16:02:40;12.97;;;12.57;;
26820;SDS011;37186;51.394;5.454;2023-03-11T16:05:40;9.10;;;8.80;;
26820;SDS011;37186;51.394;5.454;2023-03-11T16:08:41;6.82;;;6.63;;
26820;SDS011;37186;51.394;5.454;2023-03-11T16:11:43;5.38;;;5.28;;
26820;SDS011;37186;51.394;5.454;2023-03-11T16:14:44;6.65;;;6.45;;
26820;SDS011;37186;51.394;5.454;2023-03-11T16:17:46;6.60;;;6.40;;
26820;SDS011;37186;51.394;5.454;2023-03-11T16:20:49;5.35;;;5.25;;
26820;SDS011;37186;51.394;5.454;2023-03-11T16:23:51;4.53;;;4.43;;
26820;SDS011;37186;51.394;5.454;2023-03-11T16:26:51;4.65;;;4.55;;
26820;SDS011;37186;51.394;5.454;2023-03-11T16:29:52;4.80;;;4.70;;
26820;SDS011;37186;51.394;5.454;2023-03-11T16:32:53;4.38;;;4.28;;
26820;SDS011;37186;51.394;5.454;2023-03-11T16:35:53;4.15;;;4.05;;
26820;SDS011;37186;51.394;5.454;2023-03-11T16:38:54;3.83;;;3.72;;
26820;SDS011;37186;51.394;5.454;2023-03-11T16:41:54;3.50;;;3.40;;
26820;SDS011;37186;51.394;5.454;2023-03-11T16:44:55;3.47;;;3.37;;
26820;SDS011;37186;51.394;5.454;2023-03-11T16:47:55;3.37;;;3.27;;
26820;SDS011;37186;51.394;5.454;2023-03-11T16:50:56;3.50;;;3.40;;
26820;SDS011;37186;51.394;5.454;2023-03-11T16:53:57;3.80;;;3.70;;
26820;SDS011;37186;51.394;5.454;2023-03-11T16:56:57;3.97;;;3.87;;
26820;SDS011;37186;51.394;5.454;2023-03-11T16:59:58;4.10;;;4.00;;
26820;SDS011;37186;51.394;5.454;2023-03-11T17:02:58;3.50;;;3.40;;
26820;SDS011;37186;51.394;5.454;2023-03-11T17:06:00;4.10;;;4.00;;
26820;SDS011;37186;51.394;5.454;2023-03-11T17:09:01;4.53;;;4.43;;
26820;SDS011;37186;51.394;5.454;2023-03-11T17:12:02;4.87;;;4.77;;
26820;SDS011;37186;51.394;5.454;2023-03-11T17:15:04;4.80;;;4.70;;
26820;SDS011;37186;51.394;5.454;2023-03-11T17:18:05;4.37;;;4.27;;
26820;SDS011;37186;51.394;5.454;2023-03-11T17:21:06;4.27;;;4.17;;
26820;SDS011;37186;51.394;5.454;2023-03-11T17:24:08;3.80;;;3.70;;
26820;SDS011;37186;51.394;5.454;2023-03-11T17:27:10;3.80;;;3.70;;
26820;SDS011;37186;51.394;5.454;2023-03-11T17:30:11;3.50;;;3.40;;
26820;SDS011;37186;51.394;5.454;2023-03-11T17:33:12;3.30;;;3.20;;
26820;SDS011;37186;51.394;5.454;2023-03-11T17:36:13;2.83;;;2.73;;
26820;SDS011;37186;51.394;5.454;2023-03-11T17:39:15;2.87;;;2.77;;
26820;SDS011;37186;51.394;5.454;2023-03-11T17:42:15;2.90;;;2.80;;
26820;SDS011;37186;51.394;5.454;2023-03-11T17:45:16;2.83;;;2.73;;
26820;SDS011;37186;51.394;5.454;2023-03-11T17:48:17;2.80;;;2.70;;
26820;SDS011;37186;51.394;5.454;2023-03-11T17:51:21;2.67;;;2.67;;
26820;SDS011;37186;51.394;5.454;2023-03-11T17:54:23;2.60;;;2.60;;
26820;SDS011;37186;51.394;5.454;2023-03-11T17:57:23;2.70;;;2.70;;
26820;SDS011;37186;51.394;5.454;2023-03-11T18:00:24;2.40;;;2.40;;
26820;SDS011;37186;51.394;5.454;2023-03-11T18:03:24;2.50;;;2.50;;
26820;SDS011;37186;51.394;5.454;2023-03-11T18:06:25;2.40;;;2.40;;
26820;SDS011;37186;51.394;5.454;2023-03-11T18:09:26;2.50;;;2.50;;
26820;SDS011;37186;51.394;5.454;2023-03-11T18:12:27;2.37;;;2.37;;
26820;SDS011;37186;51.394;5.454;2023-03-11T18:15:27;2.57;;;2.57;;
26820;SDS011;37186;51.394;5.454;2023-03-11T18:18:28;2.30;;;2.30;;
26820;SDS011;37186;51.394;5.454;2023-03-11T18:21:30;2.60;;;2.60;;
26820;SDS011;37186;51.394;5.454;2023-03-11T18:24:31;2.57;;;2.57;;
26820;SDS011;37186;51.394;5.454;2023-03-11T18:27:31;2.50;;;2.50;;
26820;SDS011;37186;51.394;5.454;2023-03-11T18:30:35;2.40;;;2.40;;
26820;SDS011;37186;51.394;5.454;2023-03-11T18:33:36;2.50;;;2.50;;
26820;SDS011;37186;51.394;5.454;2023-03-11T18:36:37;2.60;;;2.60;;
26820;SDS011;37186;51.394;5.454;2023-03-11T18:39:38;2.67;;;2.67;;
26820;SDS011;37186;51.394;5.454;2023-03-11T18:42:38;2.63;;;2.63;;
26820;SDS011;37186;51.394;5.454;2023-03-11T18:45:39;2.60;;;2.60;;
26820;SDS011;37186;51.394;5.454;2023-03-11T18:48:39;2.60;;;2.60;;
26820;SDS011;37186;51.394;5.454;2023-03-11T18:51:41;2.60;;;2.60;;
26820;SDS011;37186;51.394;5.454;2023-03-11T18:54:41;2.70;;;2.70;;
26820;SDS011;37186;51.394;5.454;2023-03-11T18:57:42;2.60;;;2.60;;
26820;SDS011;37186;51.394;5.454;2023-03-11T19:00:42;2.80;;;2.70;;
26820;SDS011;37186;51.394;5.454;2023-03-11T19:03:47;2.60;;;2.60;;
26820;SDS011;37186;51.394;5.454;2023-03-11T19:06:49;2.70;;;2.70;;
26820;SDS011;37186;51.394;5.454;2023-03-11T19:09:50;2.63;;;2.63;;
26820;SDS011;37186;51.394;5.454;2023-03-11T19:12:50;2.70;;;2.70;;
26820;SDS011;37186;51.394;5.454;2023-03-11T19:15:51;2.63;;;2.63;;
26820;SDS011;37186;51.394;5.454;2023-03-11T19:18:52;2.57;;;2.57;;
26820;SDS011;37186;51.394;5.454;2023-03-11T19:21:54;2.50;;;2.50;;
26820;SDS011;37186;51.394;5.454;2023-03-11T19:24:54;2.70;;;2.70;;
26820;SDS011;37186;51.394;5.454;2023-03-11T19:27:55;2.43;;;2.43;;
26820;SDS011;37186;51.394;5.454;2023-03-11T19:30:56;2.60;;;2.60;;
26820;SDS011;37186;51.394;5.454;2023-03-11T19:33:57;2.40;;;2.40;;
26820;SDS011;37186;51.394;5.454;2023-03-11T19:36:58;2.40;;;2.40;;
26820;SDS011;37186;51.394;5.454;2023-03-11T19:39:59;2.37;;;2.37;;